Nearby METAR Reports

METAR is the scheduled surface weather observation taken hourly at civil and military airport locations.

METAR is an acronym from the French language and roughly translates as Aviation Routine Weather Report.

 

EGPL - Benbecula Island, United Kingdom
Distance from station: WNW 41mi, 66km
Updated: 04/04/2020 10:50
Light rain, Mostly cloudy
Light rain, Mostly cloudy
 Wind from SSW
Wind: SSW 16 mph , 26 km/h
Temperature: 7°C
Wind Chill: 3°C
Dew Point: 6°C
Humidity: 93%
Barometer: 1009 hPa
Summary: Light rain
Clouds: Mostly cloudy
Visibility: 6 miles , 10 km
Cloud details: Few Clouds 152 m
Partly cloudy 792 m
Mostly cloudy 1036 m
2020/04/04 09:50 EGPL 040950Z 20014KT 9999 -RA FEW005 SCT026 BKN034 07/06 Q1009
EGPU - Tiree Island, United Kingdom
Distance from station: SSW 56mi, 90km
Updated: 04/04/2020 10:50
Mostly cloudy
Mostly cloudy
 Wind from S
Wind: S 18 mph , 30 km/h
Temperature: 8°C
Wind Chill: 4°C
Dew Point: 6°C
Humidity: 87%
Barometer: 1011 hPa
Clouds: Mostly cloudy
Visibility: 6 miles , 10 km
Cloud details: Mostly cloudy 1494 m
2020/04/04 09:50 EGPU 040950Z AUTO 19016KT 9999 BKN049/// 08/06 Q1011
 
EGEO - Oban Airport, United Kingdom
Distance from station: SE 65mi, 105km
Updated: 23/03/2020 15:20
NOT Current
Partly cloudy
Partly cloudy
 Wind from S
Wind: S 20 mph , 31 km/h
Temperature: 9°C
Wind Chill: 5°C
Dew Point: 3°C
Humidity: 66%
Barometer: 1017 hPa
Clouds: Partly cloudy
Visibility: 6 miles , 10 km
Cloud details: Partly cloudy 1067 m
2020/03/23 15:20 EGEO 231520Z 18017KT 9999 SCT035 09/03 Q1017
EGPO - Stornoway, United Kingdom
Distance from station: 0 66mi, 106km
Updated: 04/04/2020 10:50
Few Clouds
Few Clouds
 Wind from SSW
Wind: SSW 17 mph , 28 km/h
Temperature: 8°C
Wind Chill: 4°C
Dew Point: 6°C
Humidity: 87%
Barometer: 1009 hPa
Clouds: Few Clouds
Visibility: 6 miles , 10 km
Cloud details: Few Clouds 671 m
2020/04/04 09:50 EGPO 040950Z AUTO 20015KT 9999 FEW022/// 08/06 Q1009
 
EGPE - Inverness/Dalcro, United Kingdom
Distance from station: ENE 88mi, 141km
Updated: 04/04/2020 11:20
unable to load EGPE data RC=
unable to load EGPE data RC=
 
EGQA - Tain Range (saws, United Kingdom
Distance from station: ENE 97mi, 156km
Updated: 27/03/2020 12:50
NOT Current
Partly cloudy
Partly cloudy
 Wind from calm
Wind: Calm
Clouds: Partly cloudy
Visibility: 6 miles , 10 km
Cloud details: Partly cloudy 1219 m
2020/03/27 12:50 EGQA 271250Z 00000KT 9999 SCT040 12/// Q1033 RMK BLU
 
EGQK - Kinloss Raf, United Kingdom
Distance from station: ENE 107mi, 171km
Updated: 04/04/2020 10:50
Partly cloudy
Partly cloudy
 Wind from SSW
Wind: SSW 9 mph , 15 km/h
Temperature: 9°C
Wind Chill: 7°C
Dew Point: 3°C
Humidity: 66%
Barometer: 1011 hPa
Clouds: Partly cloudy
Visibility: 6 miles , 10 km
Cloud details: Partly cloudy 884 m
Partly cloudy 1463 m
2020/04/04 09:50 EGQK 040950Z AUTO 21008KT 9999 SCT029/// SCT048/// 09/03 Q1011
EGPI - Islay/Port Ellen, United Kingdom
Distance from station: S 110mi, 177km
Updated: 04/04/2020 10:50
Clear
Clear
 Wind from S
Wind: S 15 mph , 24 km/h
Temperature: 9°C
Wind Chill: 6°C
Dew Point: 5°C
Humidity: 76%
Barometer: 1012 hPa
Clouds: Clear
Visibility: 6 miles , 10 km
2020/04/04 09:50 EGPI 040950Z AUTO 17013KT 140V200 9999 NCD 09/05 Q1012
 
EGQS - Lossiemouth Raf, United Kingdom
Distance from station: ENE 117mi, 188km
Updated: 04/04/2020 10:50
Overcast
Overcast
 Wind from SSW
Wind: SSW 12 mph , 19 km/h
Temperature: 9°C
Wind Chill: 6°C
Dew Point: 4°C
Humidity: 71%
Barometer: 1012 hPa
Clouds: Overcast
Visibility: 6 miles , 10 km
Cloud details: Few Clouds 853 m
Overcast 7620 m
2020/04/04 09:50 EGQS 040950Z 21010KT 9999 FEW028 OVC250 09/04 Q1012 RMK BLU
EGPF - Glasgow Airport, United Kingdom
Distance from station: SE 121mi, 195km
Updated: 04/04/2020 10:50
Mostly cloudy
Mostly cloudy
 Wind from SSW
Wind: SSW 12 mph , 19 km/h
Temperature: 9°C
Wind Chill: 6°C
Dew Point: 5°C
Humidity: 76%
Barometer: 1014 hPa
Clouds: Mostly cloudy
Visibility: 6 miles , 10 km
Cloud details: Mostly cloudy 579 m
Mostly cloudy 762 m
2020/04/04 09:50 EGPF 040950Z AUTO 20010KT 9999 BKN019 BKN025 09/05 Q1014
 
EGEC - Campbeltown, United Kingdom
Distance from station: SSE 129mi, 207km
Updated: 03/04/2020 09:50
NOT Current
Mostly cloudy
Mostly cloudy
 Wind from WSW
Wind: WSW 14 mph , 22 km/h
Temperature: 6°C
Wind Chill: 2°C
Dew Point: 5°C
Humidity: 93%
Barometer: 1013 hPa
Clouds: Mostly cloudy
Visibility: 6 miles , 10 km
Cloud details: Few Clouds 305 m
Mostly cloudy 579 m
2020/04/03 08:50 EGEC 030850Z 25012KT 9999 FEW010 BKN019 06/05 Q1013
EGPN - Dundee/Riverside, United Kingdom
Distance from station: ESE 137mi, 221km
Updated: 04/04/2020 10:50
Few Clouds
Few Clouds
 Wind from SW
Wind: SW 12 mph , 19 km/h
Temperature: 9°C
Wind Chill: 6°C
Dew Point: 5°C
Humidity: 76%
Barometer: 1014 hPa
Clouds: Few Clouds
Visibility: 6 miles , 10 km
Cloud details: Few Clouds 640 m
2020/04/04 09:50 EGPN 040950Z 23010KT 9999 FEW021 09/05 Q1014
 
EGPK - Prestwick(Civ/Na, United Kingdom
Distance from station: SSE 139mi, 224km
Updated: 04/04/2020 10:50
Partly cloudy
Partly cloudy
 Wind from SSE
Wind: SSE 12 mph , 19 km/h
Temperature: 9°C
Wind Chill: 6°C
Dew Point: 5°C
Humidity: 76%
Barometer: 1014 hPa
Clouds: Partly cloudy
Visibility: 6 miles , 10 km
Cloud details: Few Clouds 457 m
Partly cloudy 1219 m
2020/04/04 09:50 EGPK 040950Z 16010KT 9999 FEW015 SCT040 09/05 Q1014
EGQL - Leuchars Raf, United Kingdom
Distance from station: ESE 145mi, 233km
Updated: 04/04/2020 10:50
Clear
Clear
 Wind from WSW
Wind: WSW 14 mph , 22 km/h
Temperature: 9°C
Wind Chill: 6°C
Dew Point: 5°C
Humidity: 76%
Barometer: 1014 hPa
Summary: Clear
Visibility: greater than 7 miles , 10 km
2020/04/04 09:50 EGQL 040950Z 24012KT CAVOK 09/05 Q1014 BLU
 
EGPH - Edinburgh Airpor, United Kingdom
Distance from station: SE 145mi, 234km
Updated: 04/04/2020 10:50
Clear
Clear
 Wind from SSW
Wind: SSW 13 mph , 20 km/h
Temperature: 10°C
Wind Chill: 7°C
Dew Point: 5°C
Humidity: 71%
Barometer: 1014 hPa
Summary: Clear
Visibility: greater than 7 miles , 10 km
2020/04/04 09:50 EGPH 040950Z 21011KT CAVOK 10/05 Q1014
EGPC - Wick, United Kingdom
Distance from station: NE 146mi, 234km
Updated: 04/04/2020 10:50
Clear
Clear
 Wind from SSW
Wind: SSW 10 mph , 17 km/h
Temperature: 7°C
Wind Chill: 4°C
Dew Point: 4°C
Humidity: 81%
Barometer: 1011 hPa
Clouds: Clear
Visibility: 6 miles , 10 km
2020/04/04 09:50 EGPC 040950Z AUTO 21009KT 9999 NCD 07/04 Q1011

-

free counters
QR Code Twitter Scottish Weather Network UK Weather Network
Argyll House B & B

Argyll House B & B is situated in North West Skye and is the perfect base to see all that the Isle of Skye has to offer. Bookings are been taken for 2020 and 2021